Butler Center, Indiana
Current Conditions -  °F | °C
As of 11:55 PM on Sunday 21 Dec 2014 (Local Time) from KGWB Reporting Station
Haze Haze  
Wind Chill: 23°   Ceiling: Unl
Heat Index: 28°   Visibility: 5mi
Dew Point: 25°   Wind: 5mph
Humidity: 86%   Direction: 100°E
Pressure: 30.13"   Gusts: NA
Location:  41.3275°N, 85.1414°W
Report Text: KGWB 220455Z AUTO 10004KT 5SM BR CLR M02/M04 A3013 RMK AO2
Loading
Personal Weather Stations






























Interactive Weather Map New forecast layout! Learn more

10-Day Weather Forecast

Advertisements
Track Severe Weather on mobile